sensor_id;sensor_type;location;lat;lon;timestamp;P1;durP1;ratioP1;P2;durP2;ratioP2
67092;SDS011;54011;50.772;7.730;2023-04-21T00:00:56;33.25;;;19.63;;
67092;SDS011;54011;50.772;7.730;2023-04-21T00:03:24;34.17;;;19.90;;
67092;SDS011;54011;50.772;7.730;2023-04-21T00:05:50;35.00;;;20.38;;
67092;SDS011;54011;50.772;7.730;2023-04-21T00:08:16;34.60;;;20.05;;
67092;SDS011;54011;50.772;7.730;2023-04-21T00:10:43;33.85;;;20.17;;
67092;SDS011;54011;50.772;7.730;2023-04-21T00:13:09;35.33;;;20.35;;
67092;SDS011;54011;50.772;7.730;2023-04-21T00:15:35;41.92;;;21.80;;
67092;SDS011;54011;50.772;7.730;2023-04-21T00:18:01;39.20;;;20.90;;
67092;SDS011;54011;50.772;7.730;2023-04-21T00:20:28;36.00;;;21.42;;
67092;SDS011;54011;50.772;7.730;2023-04-21T00:22:54;41.00;;;21.65;;
67092;SDS011;54011;50.772;7.730;2023-04-21T00:25:21;42.75;;;21.73;;
67092;SDS011;54011;50.772;7.730;2023-04-21T00:27:47;39.85;;;22.38;;
67092;SDS011;54011;50.772;7.730;2023-04-21T00:30:12;39.50;;;21.95;;
67092;SDS011;54011;50.772;7.730;2023-04-21T00:32:41;41.80;;;23.40;;
67092;SDS011;54011;50.772;7.730;2023-04-21T00:35:07;41.78;;;22.58;;
67092;SDS011;54011;50.772;7.730;2023-04-21T00:37:33;39.50;;;22.40;;
67092;SDS011;54011;50.772;7.730;2023-04-21T00:39:59;42.38;;;23.88;;
67092;SDS011;54011;50.772;7.730;2023-04-21T00:42:24;39.88;;;21.63;;
67092;SDS011;54011;50.772;7.730;2023-04-21T00:44:50;37.30;;;21.95;;
67092;SDS011;54011;50.772;7.730;2023-04-21T00:47:19;37.88;;;21.33;;
67092;SDS011;54011;50.772;7.730;2023-04-21T00:49:45;38.65;;;21.90;;
67092;SDS011;54011;50.772;7.730;2023-04-21T00:52:13;39.00;;;20.95;;
67092;SDS011;54011;50.772;7.730;2023-04-21T00:54:41;38.05;;;21.67;;
67092;SDS011;54011;50.772;7.730;2023-04-21T00:57:07;37.83;;;21.30;;
67092;SDS011;54011;50.772;7.730;2023-04-21T00:59:33;44.25;;;22.40;;
67092;SDS011;54011;50.772;7.730;2023-04-21T01:01:58;40.35;;;21.70;;
67092;SDS011;54011;50.772;7.730;2023-04-21T01:04:24;42.17;;;21.73;;
67092;SDS011;54011;50.772;7.730;2023-04-21T01:06:50;42.10;;;23.08;;
67092;SDS011;54011;50.772;7.730;2023-04-21T01:09:16;37.97;;;22.17;;
67092;SDS011;54011;50.772;7.730;2023-04-21T01:11:41;41.97;;;22.15;;
67092;SDS011;54011;50.772;7.730;2023-04-21T01:14:07;41.85;;;22.23;;
67092;SDS011;54011;50.772;7.730;2023-04-21T01:16:32;42.97;;;22.83;;
67092;SDS011;54011;50.772;7.730;2023-04-21T01:19:01;45.08;;;23.00;;
67092;SDS011;54011;50.772;7.730;2023-04-21T01:21:35;45.55;;;21.90;;
67092;SDS011;54011;50.772;7.730;2023-04-21T01:24:04;41.85;;;22.88;;
67092;SDS011;54011;50.772;7.730;2023-04-21T01:26:30;42.70;;;22.55;;
67092;SDS011;54011;50.772;7.730;2023-04-21T01:28:55;43.20;;;21.90;;
67092;SDS011;54011;50.772;7.730;2023-04-21T01:31:22;45.22;;;21.67;;
67092;SDS011;54011;50.772;7.730;2023-04-21T01:33:49;43.75;;;22.23;;
67092;SDS011;54011;50.772;7.730;2023-04-21T01:36:14;45.65;;;21.75;;
67092;SDS011;54011;50.772;7.730;2023-04-21T01:38:40;41.03;;;21.95;;
67092;SDS011;54011;50.772;7.730;2023-04-21T01:41:06;43.05;;;22.77;;
67092;SDS011;54011;50.772;7.730;2023-04-21T01:43:33;39.30;;;21.85;;
67092;SDS011;54011;50.772;7.730;2023-04-21T01:45:59;41.75;;;20.75;;
67092;SDS011;54011;50.772;7.730;2023-04-21T01:48:25;39.25;;;21.38;;
67092;SDS011;54011;50.772;7.730;2023-04-21T01:50:50;39.92;;;21.15;;
67092;SDS011;54011;50.772;7.730;2023-04-21T01:53:16;42.35;;;21.83;;
67092;SDS011;54011;50.772;7.730;2023-04-21T01:55:41;37.70;;;20.63;;
67092;SDS011;54011;50.772;7.730;2023-04-21T01:58:08;39.35;;;21.73;;
67092;SDS011;54011;50.772;7.730;2023-04-21T02:00:33;36.53;;;20.65;;
67092;SDS011;54011;50.772;7.730;2023-04-21T02:02:59;38.75;;;19.77;;
67092;SDS011;54011;50.772;7.730;2023-04-21T02:05:24;35.50;;;19.27;;
67092;SDS011;54011;50.772;7.730;2023-04-21T02:07:50;35.88;;;18.85;;
67092;SDS011;54011;50.772;7.730;2023-04-21T02:10:16;32.58;;;17.27;;
67092;SDS011;54011;50.772;7.730;2023-04-21T02:12:42;35.75;;;17.67;;
67092;SDS011;54011;50.772;7.730;2023-04-21T02:15:08;36.08;;;17.75;;
67092;SDS011;54011;50.772;7.730;2023-04-21T02:17:34;31.52;;;16.73;;
67092;SDS011;54011;50.772;7.730;2023-04-21T02:20:00;29.90;;;16.15;;
67092;SDS011;54011;50.772;7.730;2023-04-21T02:22:26;31.08;;;16.27;;
67092;SDS011;54011;50.772;7.730;2023-04-21T02:24:51;34.40;;;18.70;;
67092;SDS011;54011;50.772;7.730;2023-04-21T02:27:18;29.67;;;17.60;;
67092;SDS011;54011;50.772;7.730;2023-04-21T02:29:43;31.60;;;17.67;;
67092;SDS011;54011;50.772;7.730;2023-04-21T02:32:09;29.63;;;16.63;;
67092;SDS011;54011;50.772;7.730;2023-04-21T02:34:36;27.42;;;15.93;;
67092;SDS011;54011;50.772;7.730;2023-04-21T02:37:03;27.92;;;15.98;;
67092;SDS011;54011;50.772;7.730;2023-04-21T02:39:29;29.67;;;16.55;;
67092;SDS011;54011;50.772;7.730;2023-04-21T02:41:55;31.58;;;18.20;;
67092;SDS011;54011;50.772;7.730;2023-04-21T02:44:21;29.90;;;16.20;;
67092;SDS011;54011;50.772;7.730;2023-04-21T02:46:46;31.23;;;18.15;;
67092;SDS011;54011;50.772;7.730;2023-04-21T02:49:12;30.73;;;16.70;;
67092;SDS011;54011;50.772;7.730;2023-04-21T02:51:38;32.58;;;18.02;;
67092;SDS011;54011;50.772;7.730;2023-04-21T02:54:03;31.00;;;17.20;;
67092;SDS011;54011;50.772;7.730;2023-04-21T02:56:29;31.90;;;17.95;;
67092;SDS011;54011;50.772;7.730;2023-04-21T02:58:55;32.00;;;18.75;;
67092;SDS011;54011;50.772;7.730;2023-04-21T03:01:21;35.63;;;19.90;;
67092;SDS011;54011;50.772;7.730;2023-04-21T03:03:46;33.20;;;19.35;;
67092;SDS011;54011;50.772;7.730;2023-04-21T03:06:12;32.92;;;18.98;;
67092;SDS011;54011;50.772;7.730;2023-04-21T03:08:38;33.80;;;18.30;;
67092;SDS011;54011;50.772;7.730;2023-04-21T03:11:04;34.25;;;18.25;;
67092;SDS011;54011;50.772;7.730;2023-04-21T03:13:30;33.67;;;17.58;;
67092;SDS011;54011;50.772;7.730;2023-04-21T03:15:55;32.03;;;18.60;;
67092;SDS011;54011;50.772;7.730;2023-04-21T03:18:21;33.53;;;18.60;;
67092;SDS011;54011;50.772;7.730;2023-04-21T03:20:48;30.77;;;17.38;;
67092;SDS011;54011;50.772;7.730;2023-04-21T03:23:14;31.05;;;17.90;;
67092;SDS011;54011;50.772;7.730;2023-04-21T03:25:40;32.10;;;17.65;;
67092;SDS011;54011;50.772;7.730;2023-04-21T03:28:06;31.52;;;17.40;;
67092;SDS011;54011;50.772;7.730;2023-04-21T03:30:32;31.83;;;17.55;;
67092;SDS011;54011;50.772;7.730;2023-04-21T03:32:57;30.60;;;16.75;;
67092;SDS011;54011;50.772;7.730;2023-04-21T03:35:23;28.55;;;16.35;;
67092;SDS011;54011;50.772;7.730;2023-04-21T03:37:49;29.70;;;16.92;;
67092;SDS011;54011;50.772;7.730;2023-04-21T03:40:14;31.40;;;17.50;;
67092;SDS011;54011;50.772;7.730;2023-04-21T03:42:41;30.30;;;15.98;;
67092;SDS011;54011;50.772;7.730;2023-04-21T03:45:07;30.42;;;15.32;;
67092;SDS011;54011;50.772;7.730;2023-04-21T03:47:34;30.00;;;16.67;;
67092;SDS011;54011;50.772;7.730;2023-04-21T03:50:02;30.33;;;16.63;;
67092;SDS011;54011;50.772;7.730;2023-04-21T03:52:29;31.77;;;16.48;;
67092;SDS011;54011;50.772;7.730;2023-04-21T03:54:55;29.88;;;16.15;;
67092;SDS011;54011;50.772;7.730;2023-04-21T03:57:21;30.50;;;16.52;;
67092;SDS011;54011;50.772;7.730;2023-04-21T03:59:46;30.95;;;16.67;;
67092;SDS011;54011;50.772;7.730;2023-04-21T04:02:12;26.92;;;15.43;;
67092;SDS011;54011;50.772;7.730;2023-04-21T04:04:37;30.30;;;16.17;;
67092;SDS011;54011;50.772;7.730;2023-04-21T04:07:03;30.15;;;16.98;;
67092;SDS011;54011;50.772;7.730;2023-04-21T04:09:29;30.40;;;16.25;;
67092;SDS011;54011;50.772;7.730;2023-04-21T04:11:54;32.53;;;17.83;;
67092;SDS011;54011;50.772;7.730;2023-04-21T04:14:20;34.42;;;18.35;;
67092;SDS011;54011;50.772;7.730;2023-04-21T04:16:45;32.50;;;17.15;;
67092;SDS011;54011;50.772;7.730;2023-04-21T04:19:11;37.33;;;18.73;;
67092;SDS011;54011;50.772;7.730;2023-04-21T04:21:37;40.42;;;20.13;;
67092;SDS011;54011;50.772;7.730;2023-04-21T04:24:02;35.33;;;18.13;;
67092;SDS011;54011;50.772;7.730;2023-04-21T04:26:29;33.90;;;17.83;;
67092;SDS011;54011;50.772;7.730;2023-04-21T04:28:58;34.30;;;17.58;;
67092;SDS011;54011;50.772;7.730;2023-04-21T04:31:26;38.30;;;19.33;;
67092;SDS011;54011;50.772;7.730;2023-04-21T04:33:55;36.13;;;18.90;;
67092;SDS011;54011;50.772;7.730;2023-04-21T04:36:21;38.92;;;19.73;;
67092;SDS011;54011;50.772;7.730;2023-04-21T04:38:48;41.20;;;20.55;;
67092;SDS011;54011;50.772;7.730;2023-04-21T04:41:14;41.17;;;20.00;;
67092;SDS011;54011;50.772;7.730;2023-04-21T04:43:40;42.45;;;20.80;;
67092;SDS011;54011;50.772;7.730;2023-04-21T04:46:07;46.53;;;21.77;;
67092;SDS011;54011;50.772;7.730;2023-04-21T04:48:33;42.65;;;20.20;;
67092;SDS011;54011;50.772;7.730;2023-04-21T04:50:59;39.75;;;20.83;;
67092;SDS011;54011;50.772;7.730;2023-04-21T04:53:26;42.20;;;20.42;;
67092;SDS011;54011;50.772;7.730;2023-04-21T04:55:52;53.28;;;19.73;;
67092;SDS011;54011;50.772;7.730;2023-04-21T04:58:17;245.65;;;20.05;;
67092;SDS011;54011;50.772;7.730;2023-04-21T05:00:43;514.97;;;26.50;;
67092;SDS011;54011;50.772;7.730;2023-04-21T05:03:09;205.60;;;21.25;;
67092;SDS011;54011;50.772;7.730;2023-04-21T05:05:34;62.45;;;21.00;;
67092;SDS011;54011;50.772;7.730;2023-04-21T05:08:00;48.40;;;20.55;;
67092;SDS011;54011;50.772;7.730;2023-04-21T05:10:25;37.75;;;20.10;;
67092;SDS011;54011;50.772;7.730;2023-04-21T05:12:51;34.35;;;19.60;;
67092;SDS011;54011;50.772;7.730;2023-04-21T05:15:16;50.35;;;20.48;;
67092;SDS011;54011;50.772;7.730;2023-04-21T05:17:42;51.35;;;19.05;;
67092;SDS011;54011;50.772;7.730;2023-04-21T05:20:08;29.77;;;18.05;;
67092;SDS011;54011;50.772;7.730;2023-04-21T05:22:37;34.50;;;18.75;;
67092;SDS011;54011;50.772;7.730;2023-04-21T05:25:03;33.30;;;18.55;;
67092;SDS011;54011;50.772;7.730;2023-04-21T05:27:29;113.72;;;17.38;;
67092;SDS011;54011;50.772;7.730;2023-04-21T05:29:55;295.38;;;20.50;;
67092;SDS011;54011;50.772;7.730;2023-04-21T05:32:20;232.73;;;19.75;;
67092;SDS011;54011;50.772;7.730;2023-04-21T05:34:46;245.07;;;18.15;;
67092;SDS011;54011;50.772;7.730;2023-04-21T05:37:12;167.43;;;16.52;;
67092;SDS011;54011;50.772;7.730;2023-04-21T05:39:37;106.88;;;14.13;;
67092;SDS011;54011;50.772;7.730;2023-04-21T05:42:03;77.75;;;14.57;;
67092;SDS011;54011;50.772;7.730;2023-04-21T05:44:28;92.85;;;14.68;;
67092;SDS011;54011;50.772;7.730;2023-04-21T05:46:54;58.55;;;13.90;;
67092;SDS011;54011;50.772;7.730;2023-04-21T05:49:20;52.55;;;13.65;;
67092;SDS011;54011;50.772;7.730;2023-04-21T05:51:45;25.48;;;13.82;;
67092;SDS011;54011;50.772;7.730;2023-04-21T05:54:11;112.47;;;13.25;;
67092;SDS011;54011;50.772;7.730;2023-04-21T05:56:36;27.33;;;11.80;;
67092;SDS011;54011;50.772;7.730;2023-04-21T05:59:02;22.05;;;11.68;;
67092;SDS011;54011;50.772;7.730;2023-04-21T06:01:28;70.63;;;12.77;;
67092;SDS011;54011;50.772;7.730;2023-04-21T06:03:53;137.13;;;13.10;;
67092;SDS011;54011;50.772;7.730;2023-04-21T06:06:19;22.33;;;11.48;;
67092;SDS011;54011;50.772;7.730;2023-04-21T06:08:45;20.65;;;11.13;;
67092;SDS011;54011;50.772;7.730;2023-04-21T06:11:10;21.33;;;11.90;;
67092;SDS011;54011;50.772;7.730;2023-04-21T06:13:36;21.35;;;12.15;;
67092;SDS011;54011;50.772;7.730;2023-04-21T06:16:01;26.25;;;14.45;;
67092;SDS011;54011;50.772;7.730;2023-04-21T06:18:27;30.30;;;13.57;;
67092;SDS011;54011;50.772;7.730;2023-04-21T06:20:53;24.10;;;14.63;;
67092;SDS011;54011;50.772;7.730;2023-04-21T06:23:19;27.80;;;15.85;;
67092;SDS011;54011;50.772;7.730;2023-04-21T06:25:46;33.65;;;17.60;;
67092;SDS011;54011;50.772;7.730;2023-04-21T06:28:38;30.52;;;16.90;;
67092;SDS011;54011;50.772;7.730;2023-04-21T06:31:04;34.38;;;18.08;;
67092;SDS011;54011;50.772;7.730;2023-04-21T06:33:31;34.63;;;18.65;;
67092;SDS011;54011;50.772;7.730;2023-04-21T06:35:56;40.53;;;19.38;;
67092;SDS011;54011;50.772;7.730;2023-04-21T06:38:22;39.85;;;19.10;;
67092;SDS011;54011;50.772;7.730;2023-04-21T06:40:48;40.67;;;19.60;;
67092;SDS011;54011;50.772;7.730;2023-04-21T06:43:14;35.90;;;18.90;;
67092;SDS011;54011;50.772;7.730;2023-04-21T06:45:40;23.27;;;12.50;;
67092;SDS011;54011;50.772;7.730;2023-04-21T06:48:05;270.80;;;14.32;;
67092;SDS011;54011;50.772;7.730;2023-04-21T06:50:31;268.25;;;15.70;;
67092;SDS011;54011;50.772;7.730;2023-04-21T06:52:57;233.70;;;13.57;;
67092;SDS011;54011;50.772;7.730;2023-04-21T06:55:22;52.72;;;11.45;;
67092;SDS011;54011;50.772;7.730;2023-04-21T06:57:48;18.42;;;11.45;;
67092;SDS011;54011;50.772;7.730;2023-04-21T07:00:13;27.25;;;16.48;;
67092;SDS011;54011;50.772;7.730;2023-04-21T07:02:39;31.48;;;18.60;;
67092;SDS011;54011;50.772;7.730;2023-04-21T07:05:06;35.00;;;18.98;;
67092;SDS011;54011;50.772;7.730;2023-04-21T07:07:31;35.80;;;19.75;;
67092;SDS011;54011;50.772;7.730;2023-04-21T07:09:57;24.67;;;14.05;;
67092;SDS011;54011;50.772;7.730;2023-04-21T07:12:23;24.38;;;12.73;;
67092;SDS011;54011;50.772;7.730;2023-04-21T07:14:49;23.75;;;13.88;;
67092;SDS011;54011;50.772;7.730;2023-04-21T07:17:14;23.23;;;12.43;;
67092;SDS011;54011;50.772;7.730;2023-04-21T07:19:40;23.45;;;13.98;;
67092;SDS011;54011;50.772;7.730;2023-04-21T07:22:05;27.30;;;16.13;;
67092;SDS011;54011;50.772;7.730;2023-04-21T07:24:31;28.83;;;16.77;;
67092;SDS011;54011;50.772;7.730;2023-04-21T07:26:58;30.35;;;16.40;;
67092;SDS011;54011;50.772;7.730;2023-04-21T07:29:24;32.25;;;16.52;;
67092;SDS011;54011;50.772;7.730;2023-04-21T07:31:49;27.23;;;15.70;;
67092;SDS011;54011;50.772;7.730;2023-04-21T07:34:15;20.63;;;12.50;;
67092;SDS011;54011;50.772;7.730;2023-04-21T07:36:41;20.45;;;12.73;;
67092;SDS011;54011;50.772;7.730;2023-04-21T07:39:06;23.83;;;13.18;;
67092;SDS011;54011;50.772;7.730;2023-04-21T07:41:32;24.95;;;14.02;;
67092;SDS011;54011;50.772;7.730;2023-04-21T07:43:58;25.50;;;14.27;;
67092;SDS011;54011;50.772;7.730;2023-04-21T07:46:24;27.88;;;14.55;;
67092;SDS011;54011;50.772;7.730;2023-04-21T07:48:57;25.60;;;14.85;;
67092;SDS011;54011;50.772;7.730;2023-04-21T07:51:24;28.15;;;15.77;;
67092;SDS011;54011;50.772;7.730;2023-04-21T07:53:51;30.95;;;16.30;;
67092;SDS011;54011;50.772;7.730;2023-04-21T07:56:17;30.02;;;16.95;;
67092;SDS011;54011;50.772;7.730;2023-04-21T07:58:43;31.40;;;16.73;;
67092;SDS011;54011;50.772;7.730;2023-04-21T08:01:08;31.83;;;17.90;;
67092;SDS011;54011;50.772;7.730;2023-04-21T08:03:34;28.95;;;17.15;;
67092;SDS011;54011;50.772;7.730;2023-04-21T08:06:00;34.40;;;18.10;;
67092;SDS011;54011;50.772;7.730;2023-04-21T08:08:25;30.00;;;17.17;;
67092;SDS011;54011;50.772;7.730;2023-04-21T08:10:52;29.10;;;17.80;;
67092;SDS011;54011;50.772;7.730;2023-04-21T08:13:18;28.15;;;15.52;;
67092;SDS011;54011;50.772;7.730;2023-04-21T08:15:45;26.30;;;16.73;;
67092;SDS011;54011;50.772;7.730;2023-04-21T08:18:10;27.00;;;16.23;;
67092;SDS011;54011;50.772;7.730;2023-04-21T08:20:36;32.65;;;16.85;;
67092;SDS011;54011;50.772;7.730;2023-04-21T08:23:01;28.92;;;17.25;;
67092;SDS011;54011;50.772;7.730;2023-04-21T08:25:27;31.30;;;18.33;;
67092;SDS011;54011;50.772;7.730;2023-04-21T08:27:52;29.35;;;17.85;;
67092;SDS011;54011;50.772;7.730;2023-04-21T08:30:18;33.53;;;17.73;;
67092;SDS011;54011;50.772;7.730;2023-04-21T08:32:44;27.00;;;17.20;;
67092;SDS011;54011;50.772;7.730;2023-04-21T08:35:09;29.02;;;16.95;;
67092;SDS011;54011;50.772;7.730;2023-04-21T08:37:35;27.20;;;14.75;;
67092;SDS011;54011;50.772;7.730;2023-04-21T08:40:02;26.58;;;14.52;;
67092;SDS011;54011;50.772;7.730;2023-04-21T08:42:31;26.50;;;15.20;;
67092;SDS011;54011;50.772;7.730;2023-04-21T08:44:58;35.90;;;18.92;;
67092;SDS011;54011;50.772;7.730;2023-04-21T08:47:23;33.03;;;17.63;;
67092;SDS011;54011;50.772;7.730;2023-04-21T08:49:50;29.42;;;17.60;;
67092;SDS011;54011;50.772;7.730;2023-04-21T08:52:16;36.42;;;18.73;;
67092;SDS011;54011;50.772;7.730;2023-04-21T08:54:42;34.22;;;18.40;;
67092;SDS011;54011;50.772;7.730;2023-04-21T08:57:07;31.50;;;17.67;;
67092;SDS011;54011;50.772;7.730;2023-04-21T08:59:33;34.40;;;20.05;;
67092;SDS011;54011;50.772;7.730;2023-04-21T09:04:55;28.20;;;15.50;;
67092;SDS011;54011;50.772;7.730;2023-04-21T09:07:30;28.27;;;17.10;;
67092;SDS011;54011;50.772;7.730;2023-04-21T09:09:57;31.25;;;17.60;;
67092;SDS011;54011;50.772;7.730;2023-04-21T09:12:24;32.75;;;18.92;;
67092;SDS011;54011;50.772;7.730;2023-04-21T09:14:50;31.73;;;17.73;;
67092;SDS011;54011;50.772;7.730;2023-04-21T09:17:16;27.85;;;16.90;;
67092;SDS011;54011;50.772;7.730;2023-04-21T09:19:43;30.10;;;17.10;;
67092;SDS011;54011;50.772;7.730;2023-04-21T09:22:13;32.47;;;18.70;;
67092;SDS011;54011;50.772;7.730;2023-04-21T09:24:45;39.10;;;19.95;;
67092;SDS011;54011;50.772;7.730;2023-04-21T09:30:17;36.67;;;19.58;;
67092;SDS011;54011;50.772;7.730;2023-04-21T09:33:01;33.70;;;18.10;;
67092;SDS011;54011;50.772;7.730;2023-04-21T09:35:33;34.60;;;18.27;;
67092;SDS011;54011;50.772;7.730;2023-04-21T09:38:00;30.42;;;17.23;;
67092;SDS011;54011;50.772;7.730;2023-04-21T09:40:30;34.70;;;18.85;;
67092;SDS011;54011;50.772;7.730;2023-04-21T09:42:56;31.08;;;17.80;;
67092;SDS011;54011;50.772;7.730;2023-04-21T09:45:25;26.17;;;16.10;;
67092;SDS011;54011;50.772;7.730;2023-04-21T09:47:54;35.63;;;17.08;;
67092;SDS011;54011;50.772;7.730;2023-04-21T09:50:20;30.40;;;17.92;;
67092;SDS011;54011;50.772;7.730;2023-04-21T09:52:47;33.63;;;16.67;;
67092;SDS011;54011;50.772;7.730;2023-04-21T09:55:15;21.60;;;13.57;;
67092;SDS011;54011;50.772;7.730;2023-04-21T09:57:43;30.65;;;15.07;;
67092;SDS011;54011;50.772;7.730;2023-04-21T10:00:12;27.20;;;16.17;;
67092;SDS011;54011;50.772;7.730;2023-04-21T10:02:44;24.50;;;14.63;;
67092;SDS011;54011;50.772;7.730;2023-04-21T10:05:12;25.85;;;15.00;;
67092;SDS011;54011;50.772;7.730;2023-04-21T10:07:39;26.50;;;13.80;;
67092;SDS011;54011;50.772;7.730;2023-04-21T10:10:07;26.55;;;13.75;;
67092;SDS011;54011;50.772;7.730;2023-04-21T10:12:36;22.95;;;13.30;;
67092;SDS011;54011;50.772;7.730;2023-04-21T10:15:04;22.20;;;12.60;;
67092;SDS011;54011;50.772;7.730;2023-04-21T10:17:32;23.73;;;13.60;;
67092;SDS011;54011;50.772;7.730;2023-04-21T10:20:00;23.52;;;13.35;;
67092;SDS011;54011;50.772;7.730;2023-04-21T10:22:34;19.08;;;11.73;;
67092;SDS011;54011;50.772;7.730;2023-04-21T10:25:02;20.05;;;12.32;;
67092;SDS011;54011;50.772;7.730;2023-04-21T10:27:31;24.25;;;12.43;;
67092;SDS011;54011;50.772;7.730;2023-04-21T10:30:01;20.85;;;12.20;;
67092;SDS011;54011;50.772;7.730;2023-04-21T10:32:43;21.65;;;12.10;;
67092;SDS011;54011;50.772;7.730;2023-04-21T10:35:12;20.55;;;11.95;;
67092;SDS011;54011;50.772;7.730;2023-04-21T10:37:42;20.35;;;11.35;;
67092;SDS011;54011;50.772;7.730;2023-04-21T10:42:57;20.83;;;13.10;;
67092;SDS011;54011;50.772;7.730;2023-04-21T10:45:29;18.13;;;10.45;;
67092;SDS011;54011;50.772;7.730;2023-04-21T10:47:58;18.40;;;10.73;;
67092;SDS011;54011;50.772;7.730;2023-04-21T10:50:29;18.00;;;10.75;;
67092;SDS011;54011;50.772;7.730;2023-04-21T10:53:06;17.63;;;11.02;;
67092;SDS011;54011;50.772;7.730;2023-04-21T10:55:34;17.30;;;10.07;;
67092;SDS011;54011;50.772;7.730;2023-04-21T10:58:07;20.05;;;10.48;;
67092;SDS011;54011;50.772;7.730;2023-04-21T11:00:36;22.65;;;10.43;;
67092;SDS011;54011;50.772;7.730;2023-04-21T11:03:03;17.48;;;10.55;;
67092;SDS011;54011;50.772;7.730;2023-04-21T11:05:35;18.27;;;10.90;;
67092;SDS011;54011;50.772;7.730;2023-04-21T11:13:15;21.98;;;13.38;;
67092;SDS011;54011;50.772;7.730;2023-04-21T11:15:41;20.38;;;13.48;;
67092;SDS011;54011;50.772;7.730;2023-04-21T11:18:20;20.33;;;13.35;;
67092;SDS011;54011;50.772;7.730;2023-04-21T11:20:48;22.90;;;13.57;;
67092;SDS011;54011;50.772;7.730;2023-04-21T11:23:17;20.00;;;13.13;;
67092;SDS011;54011;50.772;7.730;2023-04-21T11:25:44;18.25;;;10.73;;
67092;SDS011;54011;50.772;7.730;2023-04-21T11:28:10;21.55;;;12.23;;
67092;SDS011;54011;50.772;7.730;2023-04-21T11:30:36;18.52;;;12.48;;
67092;SDS011;54011;50.772;7.730;2023-04-21T11:33:03;17.98;;;10.88;;
67092;SDS011;54011;50.772;7.730;2023-04-21T11:35:30;19.33;;;11.50;;
67092;SDS011;54011;50.772;7.730;2023-04-21T11:37:57;20.52;;;11.35;;
67092;SDS011;54011;50.772;7.730;2023-04-21T11:40:24;20.35;;;11.35;;
67092;SDS011;54011;50.772;7.730;2023-04-21T11:42:56;17.15;;;10.23;;
67092;SDS011;54011;50.772;7.730;2023-04-21T11:45:33;18.40;;;11.05;;
67092;SDS011;54011;50.772;7.730;2023-04-21T11:48:14;16.05;;;10.70;;
67092;SDS011;54011;50.772;7.730;2023-04-21T11:50:45;16.52;;;10.32;;
67092;SDS011;54011;50.772;7.730;2023-04-21T11:53:13;14.50;;;8.00;;
67092;SDS011;54011;50.772;7.730;2023-04-21T11:55:46;15.90;;;10.02;;
67092;SDS011;54011;50.772;7.730;2023-04-21T11:58:12;19.25;;;10.45;;
67092;SDS011;54011;50.772;7.730;2023-04-21T12:00:49;17.45;;;10.63;;
67092;SDS011;54011;50.772;7.730;2023-04-21T12:03:18;14.25;;;8.50;;
67092;SDS011;54011;50.772;7.730;2023-04-21T12:05:44;18.10;;;11.70;;
67092;SDS011;54011;50.772;7.730;2023-04-21T12:08:14;15.32;;;9.45;;
67092;SDS011;54011;50.772;7.730;2023-04-21T12:10:44;15.38;;;9.75;;
67092;SDS011;54011;50.772;7.730;2023-04-21T12:13:25;18.95;;;11.70;;
67092;SDS011;54011;50.772;7.730;2023-04-21T12:15:52;16.65;;;10.48;;
67092;SDS011;54011;50.772;7.730;2023-04-21T12:18:20;17.45;;;10.65;;
67092;SDS011;54011;50.772;7.730;2023-04-21T12:20:51;17.90;;;10.63;;
67092;SDS011;54011;50.772;7.730;2023-04-21T12:23:17;15.57;;;10.02;;
67092;SDS011;54011;50.772;7.730;2023-04-21T12:25:43;16.90;;;10.77;;
67092;SDS011;54011;50.772;7.730;2023-04-21T12:28:13;17.30;;;10.50;;
67092;SDS011;54011;50.772;7.730;2023-04-21T12:30:41;15.75;;;9.73;;
67092;SDS011;54011;50.772;7.730;2023-04-21T12:33:07;20.10;;;9.23;;
67092;SDS011;54011;50.772;7.730;2023-04-21T12:35:38;14.73;;;9.63;;
67092;SDS011;54011;50.772;7.730;2023-04-21T12:38:07;14.73;;;9.13;;
67092;SDS011;54011;50.772;7.730;2023-04-21T12:40:33;13.15;;;8.45;;
67092;SDS011;54011;50.772;7.730;2023-04-21T12:42:59;14.50;;;8.52;;
67092;SDS011;54011;50.772;7.730;2023-04-21T12:45:26;13.43;;;8.63;;
67092;SDS011;54011;50.772;7.730;2023-04-21T12:47:51;13.07;;;8.60;;
67092;SDS011;54011;50.772;7.730;2023-04-21T12:50:17;13.65;;;8.77;;
67092;SDS011;54011;50.772;7.730;2023-04-21T12:52:42;10.80;;;7.15;;
67092;SDS011;54011;50.772;7.730;2023-04-21T12:55:08;12.77;;;7.57;;
67092;SDS011;54011;50.772;7.730;2023-04-21T12:57:37;17.50;;;8.00;;
67092;SDS011;54011;50.772;7.730;2023-04-21T13:00:04;10.65;;;6.72;;
67092;SDS011;54011;50.772;7.730;2023-04-21T13:02:32;9.95;;;6.65;;
67092;SDS011;54011;50.772;7.730;2023-04-21T13:05:01;12.95;;;7.53;;
67092;SDS011;54011;50.772;7.730;2023-04-21T13:07:29;11.18;;;7.35;;
67092;SDS011;54011;50.772;7.730;2023-04-21T13:09:56;10.70;;;6.55;;
67092;SDS011;54011;50.772;7.730;2023-04-21T13:12:21;16.30;;;6.65;;
67092;SDS011;54011;50.772;7.730;2023-04-21T13:14:47;10.63;;;6.65;;
67092;SDS011;54011;50.772;7.730;2023-04-21T13:17:13;9.77;;;6.15;;
67092;SDS011;54011;50.772;7.730;2023-04-21T13:19:40;10.32;;;6.32;;
67092;SDS011;54011;50.772;7.730;2023-04-21T13:22:06;9.73;;;6.38;;
67092;SDS011;54011;50.772;7.730;2023-04-21T13:24:32;8.65;;;5.38;;
67092;SDS011;54011;50.772;7.730;2023-04-21T13:26:59;11.38;;;5.78;;
67092;SDS011;54011;50.772;7.730;2023-04-21T13:29:28;10.57;;;5.78;;
67092;SDS011;54011;50.772;7.730;2023-04-21T13:31:57;11.37;;;5.90;;
67092;SDS011;54011;50.772;7.730;2023-04-21T13:34:24;8.60;;;5.80;;
67092;SDS011;54011;50.772;7.730;2023-04-21T13:36:50;7.30;;;4.78;;
67092;SDS011;54011;50.772;7.730;2023-04-21T13:39:18;8.13;;;5.15;;
67092;SDS011;54011;50.772;7.730;2023-04-21T13:41:44;8.55;;;4.47;;
67092;SDS011;54011;50.772;7.730;2023-04-21T13:44:09;8.48;;;5.20;;
67092;SDS011;54011;50.772;7.730;2023-04-21T13:46:35;9.50;;;5.13;;
67092;SDS011;54011;50.772;7.730;2023-04-21T13:49:01;8.40;;;5.43;;
67092;SDS011;54011;50.772;7.730;2023-04-21T13:51:27;7.05;;;4.97;;
67092;SDS011;54011;50.772;7.730;2023-04-21T13:53:54;8.93;;;4.97;;
67092;SDS011;54011;50.772;7.730;2023-04-21T13:56:20;7.88;;;5.07;;
67092;SDS011;54011;50.772;7.730;2023-04-21T13:58:46;8.82;;;5.50;;
67092;SDS011;54011;50.772;7.730;2023-04-21T14:01:12;10.10;;;4.50;;
67092;SDS011;54011;50.772;7.730;2023-04-21T14:03:38;10.60;;;5.80;;
67092;SDS011;54011;50.772;7.730;2023-04-21T14:06:06;6.47;;;3.47;;
67092;SDS011;54011;50.772;7.730;2023-04-21T14:08:34;8.57;;;4.30;;
67092;SDS011;54011;50.772;7.730;2023-04-21T14:11:00;6.35;;;4.50;;
67092;SDS011;54011;50.772;7.730;2023-04-21T14:13:40;9.85;;;4.10;;
67092;SDS011;54011;50.772;7.730;2023-04-21T14:16:06;6.88;;;3.58;;
67092;SDS011;54011;50.772;7.730;2023-04-21T14:21:07;8.48;;;4.70;;
67092;SDS011;54011;50.772;7.730;2023-04-21T14:23:40;7.45;;;4.38;;
67092;SDS011;54011;50.772;7.730;2023-04-21T14:26:05;8.27;;;4.95;;
67092;SDS011;54011;50.772;7.730;2023-04-21T14:28:33;8.93;;;4.47;;
67092;SDS011;54011;50.772;7.730;2023-04-21T14:31:03;7.72;;;4.78;;
67092;SDS011;54011;50.772;7.730;2023-04-21T14:33:28;8.98;;;5.07;;
67092;SDS011;54011;50.772;7.730;2023-04-21T14:36:00;8.32;;;5.13;;
67092;SDS011;54011;50.772;7.730;2023-04-21T14:38:26;8.85;;;4.95;;